createdAt,value
2023-05-16T00:00:35.188Z,101217.38
2023-05-16T00:03:06.517Z,101213.84
2023-05-16T00:05:34.491Z,101215.22
2023-05-16T00:08:02.195Z,101216.38
2023-05-16T00:10:29.726Z,101213.69
2023-05-16T00:12:57.572Z,101204.88
2023-05-16T00:15:25.175Z,101204.56
2023-05-16T00:17:52.665Z,101195.69
2023-05-16T00:20:23.683Z,101193.47
2023-05-16T00:22:51.677Z,101187.97
2023-05-16T00:25:19.834Z,101196.38
2023-05-16T00:27:47.425Z,101183.50
2023-05-16T00:30:14.896Z,101182.09
2023-05-16T00:32:42.667Z,101178.38
2023-05-16T00:35:11.789Z,101169.63
2023-05-16T00:37:39.709Z,101173.03
2023-05-16T00:40:08.869Z,101166.97
2023-05-16T00:42:36.405Z,101162.75
2023-05-16T00:45:04.243Z,101162.56
2023-05-16T00:47:32.051Z,101152.16
2023-05-16T00:49:59.861Z,101155.69
2023-05-16T00:52:28.624Z,101146.00
2023-05-16T00:54:57.027Z,101144.28
2023-05-16T00:57:25.269Z,101138.03
2023-05-16T00:59:52.754Z,101136.66
2023-05-16T01:02:20.423Z,101131.72
2023-05-16T01:04:49.615Z,101132.28
2023-05-16T01:07:17.564Z,101125.22
2023-05-16T01:09:45.012Z,101121.72
2023-05-16T01:12:24.177Z,101118.88
2023-05-16T01:14:54.193Z,101121.19
2023-05-16T01:17:36.907Z,101114.97
2023-05-16T01:20:19.875Z,101112.28
2023-05-16T01:22:51.607Z,101104.69
2023-05-16T01:25:40.209Z,101102.88
2023-05-16T01:28:07.829Z,101104.16
2023-05-16T01:30:40.347Z,101096.44
2023-05-16T01:33:08.737Z,101101.78
2023-05-16T01:36:21.092Z,101094.59
2023-05-16T01:39:18.205Z,101099.44
2023-05-16T01:42:06.966Z,101094.06
2023-05-16T01:44:50.457Z,101088.34
2023-05-16T01:47:20.801Z,101080.31
2023-05-16T01:50:04.670Z,101083.34
2023-05-16T01:52:45.263Z,101077.94
2023-05-16T01:55:21.473Z,101079.75
2023-05-16T01:57:51.955Z,101080.06
2023-05-16T02:00:21.080Z,101064.31
2023-05-16T02:02:48.867Z,101070.88
2023-05-16T02:05:16.710Z,101064.97
2023-05-16T02:07:45.129Z,101053.66
2023-05-16T02:10:13.858Z,101052.81
2023-05-16T02:12:41.304Z,101057.25
2023-05-16T02:15:09.977Z,101048.50
2023-05-16T02:17:37.596Z,101052.22
2023-05-16T02:20:07.316Z,101045.31
2023-05-16T02:22:35.016Z,101045.31
2023-05-16T02:25:03.635Z,101043.63
2023-05-16T02:27:31.176Z,101053.19
2023-05-16T02:29:58.919Z,101057.03
2023-05-16T02:32:26.797Z,101053.06
2023-05-16T02:34:54.544Z,101053.19
2023-05-16T02:37:22.394Z,101056.53
2023-05-16T02:39:50.026Z,101055.72
2023-05-16T02:42:17.746Z,101043.09
2023-05-16T02:44:45.464Z,101046.31
2023-05-16T02:47:12.844Z,101044.38
2023-05-16T02:49:40.623Z,101042.56
2023-05-16T02:52:08.278Z,101037.88
2023-05-16T02:54:35.829Z,101034.88
2023-05-16T02:57:03.435Z,101043.47
2023-05-16T02:59:30.929Z,101033.91
2023-05-16T03:01:58.543Z,101038.41
2023-05-16T03:04:26.197Z,101036.75
2023-05-16T03:06:53.977Z,101039.56
2023-05-16T03:09:22.003Z,101033.75
2023-05-16T03:11:49.678Z,101031.75
2023-05-16T03:14:17.115Z,101033.91
2023-05-16T03:16:45.118Z,101043.78
2023-05-16T03:19:14.189Z,101044.63
2023-05-16T03:21:41.655Z,101045.78
2023-05-16T03:24:09.337Z,101045.38
2023-05-16T03:26:37.192Z,101048.16
2023-05-16T03:29:04.901Z,101038.81
2023-05-16T03:31:33.319Z,101042.25
2023-05-16T03:34:00.884Z,101033.53
2023-05-16T03:36:28.813Z,101040.56
2023-05-16T03:38:56.610Z,101035.44
2023-05-16T03:41:24.113Z,101037.28
2023-05-16T03:43:51.932Z,101033.59
2023-05-16T03:46:19.653Z,101038.50
2023-05-16T03:48:47.368Z,101042.47
2023-05-16T03:51:14.889Z,101050.75
2023-05-16T03:53:42.269Z,101042.56
2023-05-16T03:56:09.741Z,101038.19
2023-05-16T03:58:37.278Z,101044.09
2023-05-16T04:01:04.829Z,101031.41
2023-05-16T04:03:33.720Z,101045.16
2023-05-16T04:06:01.269Z,101043.63
2023-05-16T04:08:28.751Z,101043.16
2023-05-16T04:10:56.601Z,101038.66
2023-05-16T04:13:24.460Z,101028.78
2023-05-16T04:15:52.237Z,101030.31
2023-05-16T04:18:19.705Z,101022.97
2023-05-16T04:20:47.747Z,101019.75
2023-05-16T04:23:15.535Z,101022.88
2023-05-16T04:25:43.479Z,101030.38
2023-05-16T04:28:11.399Z,101036.22
2023-05-16T04:30:39.172Z,101031.22
2023-05-16T04:33:07.269Z,101037.56
2023-05-16T04:35:35.368Z,101044.63
2023-05-16T04:38:02.790Z,101045.16
2023-05-16T04:40:30.281Z,101042.47
2023-05-16T04:42:57.727Z,101053.19
2023-05-16T04:45:25.620Z,101044.72
2023-05-16T04:47:53.765Z,101048.69
2023-05-16T04:50:21.852Z,101060.25
2023-05-16T04:52:49.546Z,101054.63
2023-05-16T04:55:17.457Z,101060.63
2023-05-16T04:57:44.931Z,101058.47
2023-05-16T05:00:13.508Z,101067.88
2023-05-16T05:02:41.006Z,101073.59
2023-05-16T05:05:09.079Z,101069.78
2023-05-16T05:07:36.704Z,101047.91
2023-05-16T05:10:04.398Z,101039.81
2023-05-16T05:12:31.898Z,101039.16
2023-05-16T05:14:59.713Z,101039.34
2023-05-16T05:17:27.537Z,101036.16
2023-05-16T05:19:55.012Z,101040.31
2023-05-16T05:22:22.473Z,101041.72
2023-05-16T05:24:50.334Z,101055.47
2023-05-16T05:27:18.052Z,101069.16
2023-05-16T05:29:45.936Z,101080.91
2023-05-16T05:32:14.097Z,101078.09
2023-05-16T05:34:41.665Z,101084.47
2023-05-16T05:37:09.091Z,101087.72
2023-05-16T05:39:36.663Z,101084.72
2023-05-16T05:42:04.613Z,101084.81
2023-05-16T05:44:32.292Z,101082.97
2023-05-16T05:47:00.086Z,101080.69
2023-05-16T05:49:28.621Z,101080.00
2023-05-16T05:51:56.360Z,101076.13
2023-05-16T05:54:24.410Z,101062.72
2023-05-16T05:56:52.102Z,101076.00
2023-05-16T05:59:19.525Z,101067.69
2023-05-16T06:01:47.428Z,101069.63
2023-05-16T06:04:15.114Z,101069.06
2023-05-16T06:06:42.877Z,101061.19
2023-05-16T06:09:10.963Z,101073.31
2023-05-16T06:11:38.415Z,101055.53
2023-05-16T06:14:06.478Z,101058.06
2023-05-16T06:16:34.332Z,101061.84
2023-05-16T06:19:02.059Z,101055.22
2023-05-16T06:21:29.863Z,101057.81
2023-05-16T06:23:57.673Z,101051.50
2023-05-16T06:26:25.618Z,101038.91
2023-05-16T06:28:53.318Z,101054.09
2023-05-16T06:31:20.937Z,101058.16
2023-05-16T06:33:48.464Z,101065.97
2023-05-16T06:36:16.113Z,101064.84
2023-05-16T06:38:43.853Z,101062.66
2023-05-16T06:41:11.611Z,101060.88
2023-05-16T06:43:40.627Z,101060.97
2023-05-16T06:46:08.263Z,101064.19
2023-05-16T06:48:36.010Z,101066.44
2023-05-16T06:51:03.796Z,101065.72
2023-05-16T06:53:32.037Z,101069.41
2023-05-16T06:55:59.844Z,101072.63
2023-05-16T06:58:27.755Z,101071.88
2023-05-16T07:00:55.538Z,101053.06
2023-05-16T07:03:23.201Z,101035.53
2023-05-16T07:05:52.948Z,101041.88
2023-05-16T07:08:20.838Z,101036.84
2023-05-16T07:10:48.643Z,101031.75
2023-05-16T07:13:16.167Z,101030.75
2023-05-16T07:15:43.836Z,101021.94
2023-05-16T07:18:11.568Z,101029.53
2023-05-16T07:20:39.294Z,101020.56
2023-05-16T07:23:06.797Z,101016.47
2023-05-16T07:25:34.464Z,101001.28
2023-05-16T07:28:02.475Z,101008.31
2023-05-16T07:30:30.668Z,101005.09
2023-05-16T07:32:58.589Z,101008.22
2023-05-16T07:35:26.609Z,101001.06
2023-05-16T07:37:54.647Z,100995.72
2023-05-16T07:40:25.999Z,100989.09
2023-05-16T07:42:53.802Z,100994.31
2023-05-16T07:45:21.493Z,100994.03
2023-05-16T07:47:48.998Z,100986.59
2023-05-16T07:50:16.808Z,100991.50
2023-05-16T07:52:44.682Z,100997.81
2023-05-16T07:55:12.494Z,101000.78
2023-05-16T07:57:40.184Z,100988.13
2023-05-16T08:00:08.421Z,100975.34
2023-05-16T08:02:36.547Z,100954.13
2023-05-16T08:05:04.418Z,100960.16
2023-05-16T08:07:32.355Z,100939.91
2023-05-16T08:09:59.871Z,100941.88
2023-05-16T08:12:27.594Z,100939.22
2023-05-16T08:14:55.098Z,100932.63
2023-05-16T08:17:22.810Z,100950.47
2023-05-16T08:19:50.571Z,100925.88
2023-05-16T08:22:18.078Z,100926.72
2023-05-16T08:24:45.681Z,100926.31
2023-05-16T08:27:13.572Z,100923.66
2023-05-16T08:29:41.668Z,100921.53
2023-05-16T08:32:11.057Z,100923.09
2023-05-16T08:34:38.838Z,100921.97
2023-05-16T08:37:06.691Z,100916.06
2023-05-16T08:39:34.455Z,100914.63
2023-05-16T08:42:02.153Z,100918.56
2023-05-16T08:44:29.655Z,100918.69
2023-05-16T08:46:57.303Z,100913.22
2023-05-16T08:49:27.790Z,100913.84
2023-05-16T08:51:58.258Z,100919.47
2023-05-16T08:54:28.156Z,100904.34
2023-05-16T08:56:58.312Z,100900.38
2023-05-16T08:59:26.097Z,100893.41
2023-05-16T09:01:53.723Z,100888.19
2023-05-16T09:04:22.052Z,100888.59
2023-05-16T09:06:50.986Z,100884.75
2023-05-16T09:09:18.484Z,100888.59
2023-05-16T09:11:46.141Z,100889.91
2023-05-16T09:14:14.310Z,100889.22
2023-05-16T09:16:42.320Z,100909.09
2023-05-16T09:19:13.262Z,100892.25
2023-05-16T09:21:42.000Z,100902.34
2023-05-16T09:24:10.601Z,100884.50
2023-05-16T09:26:39.587Z,100901.66
2023-05-16T09:29:13.681Z,100871.84
2023-05-16T09:31:42.684Z,100874.38
2023-05-16T09:34:13.439Z,100864.66
2023-05-16T09:36:43.005Z,100867.16
2023-05-16T09:39:15.718Z,100855.09
2023-05-16T09:41:43.312Z,100859.75
2023-05-16T09:44:10.808Z,100854.69
2023-05-16T09:46:38.900Z,100859.56
2023-05-16T09:49:06.721Z,100854.41
2023-05-16T09:51:34.570Z,100847.53
2023-05-16T09:54:02.052Z,100835.78
2023-05-16T09:56:30.580Z,100837.56
2023-05-16T09:58:58.097Z,100844.91
2023-05-16T10:01:26.132Z,100838.38
2023-05-16T10:03:53.992Z,100841.13
2023-05-16T10:06:22.906Z,100842.56
2023-05-16T10:08:50.982Z,100834.94
2023-05-16T10:11:19.103Z,100828.78
2023-05-16T10:13:53.334Z,100838.91
2023-05-16T10:16:23.747Z,100835.16
2023-05-16T10:18:52.493Z,100830.28
2023-05-16T10:21:23.715Z,100833.22
2023-05-16T10:23:52.575Z,100831.63
2023-05-16T10:26:22.561Z,100816.63
2023-05-16T10:28:51.426Z,100824.31
2023-05-16T10:31:19.645Z,100815.44
2023-05-16T10:33:47.940Z,100824.91
2023-05-16T10:36:17.270Z,100807.91
2023-05-16T10:38:45.470Z,100801.31
2023-05-16T10:41:13.592Z,100806.41
2023-05-16T10:43:45.208Z,100808.50
2023-05-16T10:46:14.291Z,100802.00
2023-05-16T10:48:42.430Z,100802.00
2023-05-16T10:51:38.789Z,100804.81
2023-05-16T10:54:10.245Z,100796.13
2023-05-16T10:56:38.484Z,100804.25
2023-05-16T10:59:24.158Z,100801.06
2023-05-16T11:01:56.392Z,100804.56
2023-05-16T11:04:24.374Z,100800.59
2023-05-16T11:06:53.727Z,100800.59
2023-05-16T11:09:28.883Z,100804.56
2023-05-16T11:12:00.840Z,100798.22
2023-05-16T11:14:32.804Z,100794.75
2023-05-16T11:17:00.695Z,100797.69
2023-05-16T11:19:48.138Z,100790.38
2023-05-16T11:22:41.100Z,100782.13
2023-05-16T11:25:10.816Z,100791.13
2023-05-16T11:27:48.635Z,100789.66
2023-05-16T11:30:18.117Z,100792.22
2023-05-16T11:32:49.181Z,100789.66
2023-05-16T11:35:18.165Z,100790.53
2023-05-16T11:37:47.433Z,100787.16
2023-05-16T11:40:17.399Z,100784.63
2023-05-16T11:42:47.709Z,100780.22
2023-05-16T11:45:18.053Z,100784.00
2023-05-16T11:47:48.136Z,100792.41
2023-05-16T11:50:18.118Z,100777.28
2023-05-16T11:52:48.415Z,100782.72
2023-05-16T11:55:28.206Z,100779.19
2023-05-16T11:58:02.198Z,100768.25
2023-05-16T12:00:29.795Z,100770.81
2023-05-16T12:03:03.141Z,100771.91
2023-05-16T12:05:33.129Z,100776.75
2023-05-16T12:08:01.257Z,100765.16
2023-05-16T12:10:31.875Z,100761.03
2023-05-16T12:12:59.767Z,100770.50
2023-05-16T12:15:28.679Z,100767.41
2023-05-16T12:17:57.106Z,100758.44
2023-05-16T12:20:26.309Z,100754.22
2023-05-16T12:22:57.558Z,100765.88
2023-05-16T12:25:33.301Z,100758.59
2023-05-16T12:28:03.358Z,100754.81
2023-05-16T12:30:32.850Z,100753.69
2023-05-16T12:33:12.794Z,100755.56
2023-05-16T12:35:43.455Z,100766.81
2023-05-16T12:38:13.347Z,100752.59
2023-05-16T12:40:42.664Z,100753.69
2023-05-16T12:43:19.248Z,100758.91
2023-05-16T12:45:58.334Z,100754.03
2023-05-16T12:48:35.725Z,100750.50
2023-05-16T12:51:20.068Z,100753.91
2023-05-16T12:54:05.759Z,100757.19
2023-05-16T12:56:38.326Z,100751.47
2023-05-16T12:59:05.781Z,100744.44
2023-05-16T13:01:35.083Z,100750.34
2023-05-16T13:04:03.040Z,100746.69
2023-05-16T13:06:44.969Z,100739.53
2023-05-16T13:09:19.322Z,100743.72
2023-05-16T13:11:49.066Z,100735.16
2023-05-16T13:14:18.034Z,100732.16
2023-05-16T13:16:45.591Z,100742.34
2023-05-16T13:19:13.141Z,100729.13
2023-05-16T13:21:40.825Z,100727.16
2023-05-16T13:24:08.687Z,100726.06
2023-05-16T13:26:36.304Z,100722.81
2023-05-16T13:29:03.779Z,100726.63
2023-05-16T13:31:31.395Z,100721.97
2023-05-16T13:33:59.038Z,100723.53
2023-05-16T13:36:26.996Z,100729.84
2023-05-16T13:38:55.705Z,100722.25
2023-05-16T13:41:23.386Z,100720.44
2023-05-16T13:43:51.169Z,100723.78
2023-05-16T13:46:18.963Z,100709.59
2023-05-16T13:48:46.509Z,100712.13
2023-05-16T13:51:14.236Z,100712.84
2023-05-16T13:53:42.042Z,100708.38
2023-05-16T13:56:09.836Z,100714.38
2023-05-16T13:58:48.966Z,100708.06
2023-05-16T14:01:25.550Z,100709.22
2023-05-16T14:03:53.279Z,100715.38
2023-05-16T14:06:20.993Z,100714.81
2023-05-16T14:08:48.841Z,100714.69
2023-05-16T14:11:19.661Z,100710.31
2023-05-16T14:13:47.422Z,100708.63
2023-05-16T14:16:15.535Z,100706.94
2023-05-16T14:18:43.446Z,100703.44
2023-05-16T14:21:11.238Z,100703.19
2023-05-16T14:23:40.111Z,100701.63
2023-05-16T14:26:07.930Z,100699.94
2023-05-16T14:28:35.472Z,100702.38
2023-05-16T14:31:03.291Z,100701.66
2023-05-16T14:33:32.861Z,100697.56
2023-05-16T14:36:00.869Z,100709.19
2023-05-16T14:38:28.733Z,100707.63
2023-05-16T14:40:56.255Z,100698.88
2023-05-16T14:43:24.055Z,100701.66
2023-05-16T14:45:52.238Z,100698.44
2023-05-16T14:48:20.010Z,100696.69
2023-05-16T14:50:47.892Z,100697.81
2023-05-16T14:53:16.154Z,100705.44
2023-05-16T14:55:44.605Z,100704.53
2023-05-16T14:58:12.428Z,100700.16
2023-05-16T15:00:39.892Z,100694.81
2023-05-16T15:03:07.410Z,100698.75
2023-05-16T15:05:35.849Z,100694.19
2023-05-16T15:08:03.491Z,100697.59
2023-05-16T15:10:31.177Z,100696.03
2023-05-16T15:12:58.972Z,100687.47
2023-05-16T15:15:26.785Z,100698.06
2023-05-16T15:17:54.978Z,100705.59
2023-05-16T15:20:23.544Z,100693.34
2023-05-16T15:22:51.342Z,100694.81
2023-05-16T15:25:19.235Z,100689.47
2023-05-16T15:27:46.988Z,100699.25
2023-05-16T15:30:14.911Z,100689.53
2023-05-16T15:32:42.520Z,100687.88
2023-05-16T15:35:10.466Z,100694.50
2023-05-16T15:37:38.083Z,100693.81
2023-05-16T15:40:06.500Z,100687.47
2023-05-16T15:42:34.096Z,100684.41
2023-05-16T15:45:01.983Z,100690.66
2023-05-16T15:47:29.620Z,100687.22
2023-05-16T15:49:57.522Z,100692.91
2023-05-16T15:52:25.350Z,100689.63
2023-05-16T15:54:53.072Z,100679.13
2023-05-16T15:57:20.680Z,100682.53
2023-05-16T15:59:48.233Z,100686.88
2023-05-16T16:02:16.126Z,100680.00
2023-05-16T16:04:43.731Z,100681.81
2023-05-16T16:07:11.536Z,100681.69
2023-05-16T16:09:39.085Z,100677.31
2023-05-16T16:12:07.167Z,100684.78
2023-05-16T16:14:34.809Z,100676.75
2023-05-16T16:17:03.962Z,100677.72
2023-05-16T16:19:34.659Z,100680.91
2023-05-16T16:22:02.176Z,100677.50
2023-05-16T16:24:29.632Z,100684.31
2023-05-16T16:26:57.535Z,100684.06
2023-05-16T16:29:26.151Z,100681.41
2023-05-16T16:31:53.836Z,100678.00
2023-05-16T16:34:24.540Z,100676.31
2023-05-16T16:36:52.365Z,100682.31
2023-05-16T16:39:21.120Z,100677.81
2023-05-16T16:41:48.944Z,100689.09
2023-05-16T16:44:16.432Z,100677.63
2023-05-16T16:46:44.222Z,100683.56
2023-05-16T16:49:12.091Z,100688.06
2023-05-16T16:51:39.971Z,100689.88
2023-05-16T16:54:07.868Z,100684.59
2023-05-16T16:56:36.205Z,100683.38
2023-05-16T16:59:03.720Z,100683.50
2023-05-16T17:01:32.198Z,100680.69
2023-05-16T17:04:02.096Z,100683.38
2023-05-16T17:06:30.308Z,100691.25
2023-05-16T17:09:04.704Z,100682.94
2023-05-16T17:11:36.046Z,100677.63
2023-05-16T17:14:06.175Z,100674.94
2023-05-16T17:16:34.147Z,100676.66
2023-05-16T17:19:02.037Z,100680.16
2023-05-16T17:21:29.570Z,100681.28
2023-05-16T17:23:58.367Z,100686.75
2023-05-16T17:26:26.186Z,100686.63
2023-05-16T17:28:54.142Z,100687.44
2023-05-16T17:31:22.232Z,100683.81
2023-05-16T17:33:50.236Z,100689.59
2023-05-16T17:36:18.179Z,100693.63
2023-05-16T17:38:46.015Z,100687.19
2023-05-16T17:41:13.753Z,100688.19
2023-05-16T17:43:44.655Z,100690.69
2023-05-16T17:46:13.496Z,100683.16
2023-05-16T17:48:41.044Z,100680.63
2023-05-16T17:51:08.813Z,100679.38
2023-05-16T17:53:37.658Z,100677.25
2023-05-16T17:56:05.553Z,100673.59
2023-05-16T17:58:33.269Z,100683.00
2023-05-16T18:01:01.266Z,100683.16
2023-05-16T18:03:29.130Z,100676.72
2023-05-16T18:05:57.275Z,100681.06
2023-05-16T18:08:25.324Z,100679.94
2023-05-16T18:10:52.889Z,100684.84
2023-05-16T18:13:22.225Z,100686.13
2023-05-16T18:15:50.658Z,100681.34
2023-05-16T18:18:18.829Z,100684.47
2023-05-16T18:20:47.181Z,100677.63
2023-05-16T18:23:14.753Z,100681.09
2023-05-16T18:25:42.235Z,100678.59
2023-05-16T18:28:09.930Z,100681.25
2023-05-16T18:30:38.264Z,100685.75
2023-05-16T18:33:06.622Z,100678.72
2023-05-16T18:35:34.196Z,100687.56
2023-05-16T18:38:03.967Z,100690.38
2023-05-16T18:40:31.689Z,100690.09
2023-05-16T18:42:59.454Z,100701.31
2023-05-16T18:45:29.046Z,100693.44
2023-05-16T18:47:57.117Z,100688.81
2023-05-16T18:50:28.677Z,100690.19
2023-05-16T18:52:57.634Z,100692.56
2023-05-16T18:55:25.568Z,100689.78
2023-05-16T18:57:54.008Z,100690.19
2023-05-16T19:00:21.759Z,100691.22
2023-05-16T19:02:50.512Z,100688.81
2023-05-16T19:05:19.681Z,100693.16
2023-05-16T19:07:48.034Z,100688.97
2023-05-16T19:10:15.991Z,100703.44
2023-05-16T19:12:46.871Z,100698.09
2023-05-16T19:15:15.456Z,100699.34
2023-05-16T19:17:43.576Z,100689.81
2023-05-16T19:20:11.539Z,100689.09
2023-05-16T19:22:39.380Z,100692.59
2023-05-16T19:25:07.905Z,100690.50
2023-05-16T19:27:35.912Z,100693.31
2023-05-16T19:30:04.221Z,100691.91
2023-05-16T19:32:32.195Z,100688.53
2023-05-16T19:35:00.122Z,100691.06
2023-05-16T19:37:28.159Z,100683.19
2023-05-16T19:39:56.077Z,100694.31
2023-05-16T19:42:23.846Z,100692.91
2023-05-16T19:44:51.388Z,100689.41
2023-05-16T19:47:19.606Z,100689.69
2023-05-16T19:49:47.340Z,100691.38
2023-05-16T19:52:15.008Z,100688.28
2023-05-16T19:54:42.544Z,100693.63
2023-05-16T19:57:10.099Z,100700.50
2023-05-16T19:59:38.013Z,100696.41
2023-05-16T20:02:05.774Z,100689.94
2023-05-16T20:04:33.606Z,100688.00
2023-05-16T20:07:01.464Z,100685.34
2023-05-16T20:09:29.046Z,100679.84
2023-05-16T20:11:57.519Z,100681.97
2023-05-16T20:14:25.336Z,100674.81
2023-05-16T20:16:53.158Z,100690.25
2023-05-16T20:19:21.274Z,100689.56
2023-05-16T20:21:49.240Z,100684.63
2023-05-16T20:24:17.695Z,100686.63
2023-05-16T20:26:45.206Z,100692.22
2023-05-16T20:29:12.872Z,100687.31
2023-05-16T20:31:43.175Z,100687.47
2023-05-16T20:34:11.481Z,100690.28
2023-05-16T20:36:39.486Z,100687.59
2023-05-16T20:39:09.129Z,100692.09
2023-05-16T20:41:36.873Z,100696.44
2023-05-16T20:44:04.511Z,100703.47
2023-05-16T20:46:32.430Z,100698.53
2023-05-16T20:48:59.997Z,100691.94
2023-05-16T20:51:27.731Z,100683.78
2023-05-16T20:53:55.297Z,100691.50
2023-05-16T20:56:23.066Z,100688.84
2023-05-16T20:58:50.912Z,100701.88
2023-05-16T21:01:18.788Z,100704.41
2023-05-16T21:03:46.511Z,100698.13
2023-05-16T21:06:14.247Z,100705.81
2023-05-16T21:08:41.818Z,100711.56
2023-05-16T21:11:09.678Z,100714.94
2023-05-16T21:13:37.584Z,100701.44
2023-05-16T21:16:06.004Z,100699.63
2023-05-16T21:18:33.628Z,100709.16
2023-05-16T21:21:01.251Z,100703.97
2023-05-16T21:23:29.110Z,100704.78
2023-05-16T21:25:56.898Z,100704.28
2023-05-16T21:28:24.449Z,100705.38
2023-05-16T21:30:52.021Z,100706.22
2023-05-16T21:33:19.610Z,100712.28
2023-05-16T21:35:47.289Z,100712.09
2023-05-16T21:38:14.911Z,100707.34
2023-05-16T21:40:42.429Z,100705.66
2023-05-16T21:43:10.043Z,100705.81
2023-05-16T21:45:37.759Z,100715.75
2023-05-16T21:48:06.360Z,100712.13
2023-05-16T21:50:33.970Z,100702.31
2023-05-16T21:53:01.839Z,100708.63
2023-05-16T21:55:29.481Z,100706.78
2023-05-16T21:57:57.079Z,100710.16
2023-05-16T22:00:24.889Z,100714.78
2023-05-16T22:02:52.797Z,100712.97
2023-05-16T22:05:20.428Z,100713.53
2023-05-16T22:07:48.306Z,100721.25
2023-05-16T22:10:16.957Z,100721.94
2023-05-16T22:12:44.827Z,100716.50
2023-05-16T22:15:12.581Z,100723.50
2023-05-16T22:17:41.786Z,100729.25
2023-05-16T22:20:10.281Z,100727.56
2023-05-16T22:22:37.987Z,100727.72
2023-05-16T22:25:06.003Z,100732.06
2023-05-16T22:27:33.478Z,100732.50
2023-05-16T22:30:02.151Z,100726.59
2023-05-16T22:32:29.747Z,100730.25
2023-05-16T22:34:57.667Z,100731.66
2023-05-16T22:37:25.455Z,100727.00
2023-05-16T22:39:53.428Z,100727.28
2023-05-16T22:42:21.300Z,100726.72
2023-05-16T22:44:49.101Z,100734.16
2023-05-16T22:47:16.957Z,100728.41
2023-05-16T22:49:44.765Z,100725.59
2023-05-16T22:52:12.253Z,100722.25
2023-05-16T22:54:41.628Z,100736.81
2023-05-16T22:57:09.158Z,100733.31
2023-05-16T22:59:36.853Z,100734.16
2023-05-16T23:02:04.811Z,100734.88
2023-05-16T23:04:32.398Z,100750.56
2023-05-16T23:07:00.288Z,100747.06
2023-05-16T23:09:27.706Z,100754.63
2023-05-16T23:11:55.458Z,100751.66
2023-05-16T23:14:23.170Z,100759.25
2023-05-16T23:16:50.692Z,100755.28
2023-05-16T23:19:18.313Z,100761.44
2023-05-16T23:21:45.916Z,100764.28
2023-05-16T23:24:13.585Z,100764.56
2023-05-16T23:26:41.130Z,100764.28
2023-05-16T23:29:08.690Z,100765.56
2023-05-16T23:31:36.281Z,100764.88
2023-05-16T23:34:04.233Z,100768.78
2023-05-16T23:36:31.982Z,100768.66
2023-05-16T23:38:59.468Z,100773.28
2023-05-16T23:41:27.003Z,100770.63
2023-05-16T23:43:54.655Z,100772.31
2023-05-16T23:46:22.421Z,100764.44
2023-05-16T23:48:50.485Z,100766.00
2023-05-16T23:51:18.025Z,100780.19
2023-05-16T23:53:45.706Z,100778.59
2023-05-16T23:56:13.271Z,100776.94
2023-05-16T23:58:40.847Z,100780.69
